Helena — SCGL — position and weather

sailwx.info

Track history (hours):
 
Tides and Currents Weather Stations Pressure Air Temp Water Temp Dewpoint Dewpoint Depression Visibility Wind Speed Wind Dir Waves Ship Positions

Helena

Last reported at 2014-Oct-28 20:16 UTC. Time now 2014-Nov-01 00:37 UTC.
Position N 58°50' E 019°21'.

Length 169 m; draft 6.3 m.

Type: Cargo ship. MMSI: 265145000.

Date/timePositionNaut miles runAvg speedWind from/ knotsBaromVisibWave heightAir tempDewpointWater temp
2014-Oct-28 20:16N 58°50' E 019°21'1616.9
2014-Oct-28 19:21N 58°36' E 019°05'1317.0
2014-Oct-28 18:33N 58°25' E 018°52'1716.9
2014-Oct-28 17:33N 58°11' E 018°35'1716.9
2014-Oct-28 16:33N 57°56' E 018°19'1717.0
2014-Oct-28 15:33N 57°41' E 018°03'1716.9
2014-Oct-28 14:33N 57°26' E 017°47'1716.9
2014-Oct-28 13:33N 57°11' E 017°36'1717.0
2014-Oct-28 12:31N 56°55' E 017°24'1617.0
2014-Oct-28 11:33N 56°39' E 017°13'1716.9
2014-Oct-28 10:33N 56°24' E 017°01'1716.8
2014-Oct-28 09:33N 56°08' E 016°50'1816.5
2014-Oct-28 08:28N 55°57' E 016°25'3216.7
2014-Oct-28 06:33N 55°40' E 015°37'1716.8
2014-Oct-28 05:33N 55°33' E 015°10'1716.9
2014-Oct-28 04:33N 55°25' E 014°43'1716.9
2014-Oct-28 03:34N 55°12' E 014°24'1716.9
2014-Oct-28 02:33N 54°60' E 014°04'1717.2
2014-Oct-28 01:33N 54°54' E 013°36'1616.4
2014-Oct-28 00:33N 54°49' E 013°08'1616.4
2014-Oct-27 23:33N 54°43' E 012°42'1716.7
2014-Oct-27 22:33N 54°32' E 012°20'1615.9
2014-Oct-27 21:33N 54°23' E 011°58'1716.8
2014-Oct-27 20:32N 54°14' E 011°33'1616.5
2014-Oct-27 19:32N 54°05' E 011°09'1313.4
2014-Oct-27 18:33N 53°57' E 010°52'4 3.8
2014-Oct-27 17:26N 53°54' E 010°47'19 1.7
2014-Oct-27 06:33N 54°07' E 011°10'1514.6
2014-Oct-27 05:33N 54°15' E 011°30'1414.0
2014-Oct-27 04:33N 54°23' E 011°51'1312.8
2014-Oct-27 03:32N 54°29' E 012°11'1613.0
2014-Oct-27 02:19N 54°41' E 012°27'5313.9
2014-Oct-26 22:31N 55°01' E 013°52'1313.6
2014-Oct-26 21:33N 55°08' E 014°11'1414.1
2014-Oct-26 20:34N 55°19' E 014°27'1413.8
2014-Oct-26 19:34N 55°29' E 014°44'1414.1
2014-Oct-26 18:34N 55°36' E 015°06'4314.0
2014-Oct-26 15:31N 55°60' E 016°09'1212.4
2014-Oct-26 14:33N 56°04' E 016°29'4513.6
2014-Oct-26 11:14N 56°45' E 017°02'1014.3
2014-Oct-26 10:33N 56°55' E 017°07'1414.2
2014-Oct-26 09:33N 57°08' E 017°14'1414.2
2014-Oct-26 08:33N 57°21' E 017°27'1514.5
2014-Oct-26 07:33N 57°33' E 017°42'  
2014-Oct-21 10:28N 57°20' E 017°44'1516.1
2014-Oct-21 09:33N 57°06' E 017°34'10915.1
2014-Oct-21 02:20N 55°40' E 015°32'1316.5
2014-Oct-21 01:34N 55°34' E 015°13'1716.5
2014-Oct-21 00:34N 55°26' E 014°48'1616.0
2014-Oct-20 23:34N 55°14' E 014°28'1616.2
2014-Oct-20 22:34N 55°02' E 014°10'6516.3
2014-Oct-20 18:33N 54°36' E 012°26'1615.9
2014-Oct-20 17:34N 54°24' E 012°07'1616.1
2014-Oct-20 16:33N 54°17' E 011°42'1816.3
2014-Oct-20 15:28N 54°08' E 011°17'13 0.4
2014-Oct-19 07:33N 54°16' E 011°33'1313.2
2014-Oct-19 06:33N 54°23' E 011°53'1212.3
2014-Oct-19 05:33N 54°29' E 012°11'1711.9
2014-Oct-19 04:08N 54°42' E 012°29'7012.2
2014-Oct-18 22:24N 55°14' E 014°18'2512.5
2014-Oct-18 20:25N 55°32' E 014°49'  
Track history (hours):
 
Tides and Currents Weather Stations Pressure Air Temp Water Temp Dewpoint Dewpoint Depression Visibility Wind Speed Wind Dir Waves Ship Positions

Helena

Last reported at 2014-Oct-28 20:16 UTC. Time now 2014-Nov-01 00:37 UTC.
Position N 58°50' E 019°21'.

Length 169 m; draft 6.3 m.

Type: Cargo ship. MMSI: 265145000.

Date/timePositionNaut miles runAvg speedWind from/ knotsBaromVisibWave heightAir tempDewpointWater temp
2014-Oct-28 20:16N 58°50' E 019°21'1616.9
2014-Oct-28 19:21N 58°36' E 019°05'1317.0
2014-Oct-28 18:33N 58°25' E 018°52'1716.9
2014-Oct-28 17:33N 58°11' E 018°35'1716.9
2014-Oct-28 16:33N 57°56' E 018°19'1717.0
2014-Oct-28 15:33N 57°41' E 018°03'1716.9
2014-Oct-28 14:33N 57°26' E 017°47'1716.9
2014-Oct-28 13:33N 57°11' E 017°36'1717.0
2014-Oct-28 12:31N 56°55' E 017°24'1617.0
2014-Oct-28 11:33N 56°39' E 017°13'1716.9
2014-Oct-28 10:33N 56°24' E 017°01'1716.8
2014-Oct-28 09:33N 56°08' E 016°50'1816.5
2014-Oct-28 08:28N 55°57' E 016°25'3216.7
2014-Oct-28 06:33N 55°40' E 015°37'1716.8
2014-Oct-28 05:33N 55°33' E 015°10'1716.9
2014-Oct-28 04:33N 55°25' E 014°43'1716.9
2014-Oct-28 03:34N 55°12' E 014°24'1716.9
2014-Oct-28 02:33N 54°60' E 014°04'1717.2
2014-Oct-28 01:33N 54°54' E 013°36'1616.4
2014-Oct-28 00:33N 54°49' E 013°08'1616.4
2014-Oct-27 23:33N 54°43' E 012°42'1716.7
2014-Oct-27 22:33N 54°32' E 012°20'1615.9
2014-Oct-27 21:33N 54°23' E 011°58'1716.8
2014-Oct-27 20:32N 54°14' E 011°33'1616.5
2014-Oct-27 19:32N 54°05' E 011°09'1313.4
2014-Oct-27 18:33N 53°57' E 010°52'4 3.8
2014-Oct-27 17:26N 53°54' E 010°47'19 1.7
2014-Oct-27 06:33N 54°07' E 011°10'1514.6
2014-Oct-27 05:33N 54°15' E 011°30'1414.0
2014-Oct-27 04:33N 54°23' E 011°51'1312.8
2014-Oct-27 03:32N 54°29' E 012°11'1613.0
2014-Oct-27 02:19N 54°41' E 012°27'5313.9
2014-Oct-26 22:31N 55°01' E 013°52'1313.6
2014-Oct-26 21:33N 55°08' E 014°11'1414.1
2014-Oct-26 20:34N 55°19' E 014°27'1413.8
2014-Oct-26 19:34N 55°29' E 014°44'1414.1
2014-Oct-26 18:34N 55°36' E 015°06'4314.0
2014-Oct-26 15:31N 55°60' E 016°09'1212.4
2014-Oct-26 14:33N 56°04' E 016°29'4513.6
2014-Oct-26 11:14N 56°45' E 017°02'1014.3
2014-Oct-26 10:33N 56°55' E 017°07'1414.2
2014-Oct-26 09:33N 57°08' E 017°14'1414.2
2014-Oct-26 08:33N 57°21' E 017°27'1514.5
2014-Oct-26 07:33N 57°33' E 017°42'  
2014-Oct-21 10:28N 57°20' E 017°44'1516.1
2014-Oct-21 09:33N 57°06' E 017°34'10915.1
2014-Oct-21 02:20N 55°40' E 015°32'1316.5
2014-Oct-21 01:34N 55°34' E 015°13'1716.5
2014-Oct-21 00:34N 55°26' E 014°48'1616.0
2014-Oct-20 23:34N 55°14' E 014°28'1616.2
2014-Oct-20 22:34N 55°02' E 014°10'6516.3
2014-Oct-20 18:33N 54°36' E 012°26'1615.9
2014-Oct-20 17:34N 54°24' E 012°07'1616.1
2014-Oct-20 16:33N 54°17' E 011°42'1816.3
2014-Oct-20 15:28N 54°08' E 011°17'13 0.4
2014-Oct-19 07:33N 54°16' E 011°33'1313.2
2014-Oct-19 06:33N 54°23' E 011°53'1212.3
2014-Oct-19 05:33N 54°29' E 012°11'1711.9
2014-Oct-19 04:08N 54°42' E 012°29'7012.2
2014-Oct-18 22:24N 55°14' E 014°18'2512.5
2014-Oct-18 20:25N 55°32' E 014°49'  

Dump ship's entire track history